Terminal Aerodrome Forecast
Issued by NWS Rapid City, SD

Home | Current Version | Previous Version | Text Only | Print | Product List | Glossary On
Versions: 1 2 3 4 5 6 7 8 9 10 11 12 13 14 15 16 17 18 19
000
FTUS43 KUNR 031516 AAB
TAFRAP
TAF AMD
KRAP 031516Z 0315/0412 35014KT P6SM OVC009
     FM032000 03011KT P6SM SCT080
     FM040900 08010KT 6SM -SHRA SCT005 BKN020=

USA.gov is the U.S. government's official web portal to all federal, state and local government web resources and services.